createdAt,value
2023-02-25T00:00:45.541Z,7.00
2023-02-25T00:02:02.958Z,6.00
2023-02-25T00:03:05.369Z,5.00
2023-02-25T00:04:08.088Z,8.00
2023-02-25T00:05:09.853Z,5.00
2023-02-25T00:06:13.745Z,7.00
2023-02-25T00:07:15.814Z,5.00
2023-02-25T00:08:18.410Z,5.00
2023-02-25T00:09:21.381Z,5.50
2023-02-25T00:10:23.986Z,7.00
2023-02-25T00:11:25.786Z,5.50
2023-02-25T00:12:29.297Z,6.00
2023-02-25T00:13:30.951Z,5.00
2023-02-25T00:14:33.551Z,7.00
2023-02-25T00:15:35.224Z,7.00
2023-02-25T00:16:37.859Z,5.00
2023-02-25T00:17:40.096Z,7.00
2023-02-25T00:18:44.411Z,5.00
2023-02-25T00:19:46.135Z,8.50
2023-02-25T00:20:48.771Z,5.00
2023-02-25T00:21:50.411Z,6.50
2023-02-25T00:22:53.089Z,6.50
2023-02-25T00:23:55.815Z,5.00
2023-02-25T00:25:00.851Z,7.00
2023-02-25T00:26:03.274Z,7.00
2023-02-25T00:27:05.890Z,7.00
2023-02-25T00:28:07.539Z,7.50
2023-02-25T00:29:10.145Z,7.00
2023-02-25T00:30:12.665Z,5.00
2023-02-25T00:31:20.720Z,5.00
2023-02-25T00:32:22.844Z,7.00
2023-02-25T00:33:25.683Z,5.00
2023-02-25T00:34:28.566Z,6.00
2023-02-25T00:35:31.183Z,8.00
2023-02-25T00:36:33.094Z,6.00
2023-02-25T00:37:36.463Z,6.50
2023-02-25T00:38:38.116Z,7.00
2023-02-25T00:39:43.603Z,7.50
2023-02-25T00:40:46.648Z,7.00
2023-02-25T00:41:49.247Z,7.00
2023-02-25T00:42:51.423Z,5.00
2023-02-25T00:43:54.895Z,6.00
2023-02-25T00:44:56.526Z,4.50
2023-02-25T00:46:00.000Z,7.00
2023-02-25T00:47:01.691Z,5.00
2023-02-25T00:48:04.442Z,5.00
2023-02-25T00:49:06.082Z,5.00
2023-02-25T00:50:09.730Z,7.00
2023-02-25T00:51:12.841Z,7.00
2023-02-25T00:52:15.563Z,7.00
2023-02-25T00:53:17.202Z,5.00
2023-02-25T00:54:19.802Z,7.25
2023-02-25T00:55:21.433Z,5.50
2023-02-25T00:56:26.038Z,7.00
2023-02-25T00:57:27.679Z,5.50
2023-02-25T00:58:30.274Z,5.50
2023-02-25T00:59:32.077Z,7.00
2023-02-25T01:00:46.525Z,5.50
2023-02-25T01:01:52.088Z,7.00
2023-02-25T01:02:55.102Z,4.00
2023-02-25T01:03:57.106Z,5.00
2023-02-25T01:04:59.976Z,7.00
2023-02-25T01:06:02.965Z,7.00
2023-02-25T01:07:05.786Z,5.00
2023-02-25T01:08:07.422Z,5.00
2023-02-25T01:09:13.800Z,5.00
2023-02-25T01:10:15.862Z,4.00
2023-02-25T01:11:21.075Z,6.50
2023-02-25T01:12:24.164Z,5.00
2023-02-25T01:13:26.758Z,5.00
2023-02-25T01:14:28.398Z,4.50
2023-02-25T01:15:31.448Z,5.00
2023-02-25T01:16:33.722Z,5.00
2023-02-25T01:17:36.912Z,7.00
2023-02-25T01:18:38.638Z,5.00
2023-02-25T01:19:41.235Z,7.75
2023-02-25T01:20:42.877Z,4.00
2023-02-25T01:21:46.518Z,5.00
2023-02-25T01:22:48.188Z,6.50
2023-02-25T01:23:50.849Z,7.00
2023-02-25T01:24:54.628Z,3.00
2023-02-25T01:25:57.231Z,6.00
2023-02-25T01:27:00.022Z,6.75
2023-02-25T01:28:04.170Z,6.00
2023-02-25T01:29:06.961Z,5.00
2023-02-25T01:30:11.432Z,5.50
2023-02-25T01:31:16.995Z,5.00
2023-02-25T01:32:19.817Z,5.00
2023-02-25T01:33:21.582Z,7.00
2023-02-25T01:34:24.228Z,5.00
2023-02-25T01:35:25.909Z,8.75
2023-02-25T01:36:28.847Z,7.50
2023-02-25T01:37:30.487Z,6.50
2023-02-25T01:38:33.143Z,7.00
2023-02-25T01:39:36.231Z,7.00
2023-02-25T01:40:37.900Z,5.00
2023-02-25T01:41:40.537Z,8.00
2023-02-25T01:42:42.181Z,5.50
2023-02-25T01:44:08.507Z,7.50
2023-02-25T01:45:31.011Z,7.00
2023-02-25T01:46:33.669Z,7.00
2023-02-25T01:47:36.226Z,7.00
2023-02-25T01:48:40.525Z,7.50
2023-02-25T01:49:43.366Z,7.00
2023-02-25T01:50:48.965Z,7.00
2023-02-25T01:51:51.844Z,7.50
2023-02-25T01:52:54.884Z,7.00
2023-02-25T01:53:57.077Z,10.00
2023-02-25T01:54:59.690Z,7.00
2023-02-25T01:56:01.347Z,7.00
2023-02-25T01:57:04.563Z,7.00
2023-02-25T01:58:06.190Z,6.00
2023-02-25T01:59:10.143Z,7.25
2023-02-25T02:00:15.984Z,8.00
2023-02-25T02:01:21.259Z,7.00
2023-02-25T02:02:23.380Z,9.50
2023-02-25T02:03:26.630Z,7.00
2023-02-25T02:04:28.243Z,6.50
2023-02-25T02:05:39.293Z,7.00
2023-02-25T02:06:42.207Z,10.50
2023-02-25T02:07:44.808Z,7.00
2023-02-25T02:08:46.428Z,7.00
2023-02-25T02:09:56.824Z,8.75
2023-02-25T02:10:58.640Z,7.00
2023-02-25T02:12:02.052Z,8.25
2023-02-25T02:13:03.680Z,8.75
2023-02-25T02:14:06.550Z,8.75
2023-02-25T02:15:11.557Z,8.75
2023-02-25T02:16:23.071Z,7.25
2023-02-25T02:17:25.984Z,7.50
2023-02-25T02:18:29.533Z,8.00
2023-02-25T02:19:36.645Z,7.25
2023-02-25T02:20:44.057Z,7.00
2023-02-25T02:21:52.472Z,8.50
2023-02-25T02:23:10.586Z,9.00
2023-02-25T02:24:40.984Z,7.00
2023-02-25T02:25:53.792Z,7.50
2023-02-25T02:27:00.112Z,9.00
2023-02-25T02:28:14.477Z,7.00
2023-02-25T02:29:22.720Z,6.50
2023-02-25T02:30:48.669Z,9.00
2023-02-25T02:32:07.754Z,10.00
2023-02-25T02:33:12.712Z,6.00
2023-02-25T02:34:20.868Z,7.00
2023-02-25T02:35:28.356Z,9.00
2023-02-25T02:36:32.919Z,8.50
2023-02-25T02:37:39.706Z,8.00
2023-02-25T02:38:44.220Z,10.00
2023-02-25T02:39:50.827Z,7.00
2023-02-25T02:40:54.755Z,6.00
2023-02-25T02:42:00.900Z,9.00
2023-02-25T02:43:07.158Z,7.00
2023-02-25T02:44:13.332Z,7.50
2023-02-25T02:45:18.172Z,9.00
2023-02-25T02:46:22.388Z,8.00
2023-02-25T02:47:25.945Z,8.75
2023-02-25T02:48:30.877Z,7.00
2023-02-25T02:49:35.959Z,8.75
2023-02-25T02:50:39.713Z,8.75
2023-02-25T02:51:43.905Z,8.75
2023-02-25T02:52:48.592Z,8.75
2023-02-25T02:53:52.469Z,9.75
2023-02-25T02:54:56.804Z,9.00
2023-02-25T02:56:00.813Z,8.75
2023-02-25T02:57:03.425Z,8.75
2023-02-25T02:58:07.175Z,10.25
2023-02-25T02:59:13.202Z,7.00
2023-02-25T03:00:17.694Z,8.50
2023-02-25T03:01:22.323Z,6.50
2023-02-25T03:02:26.757Z,9.00
2023-02-25T03:03:36.269Z,9.00
2023-02-25T03:04:39.423Z,9.00
2023-02-25T03:05:41.716Z,9.50
2023-02-25T03:06:45.889Z,8.00
2023-02-25T03:07:50.735Z,9.25
2023-02-25T03:08:55.965Z,6.00
2023-02-25T03:09:59.145Z,10.75
2023-02-25T03:11:01.819Z,8.75
2023-02-25T03:12:03.626Z,9.75
2023-02-25T03:13:06.226Z,5.50
2023-02-25T03:14:08.546Z,7.00
2023-02-25T03:15:11.634Z,8.75
2023-02-25T03:16:14.798Z,8.00
2023-02-25T03:17:19.163Z,8.75
2023-02-25T03:18:27.041Z,8.75
2023-02-25T03:19:32.431Z,5.50
2023-02-25T03:20:36.859Z,7.50
2023-02-25T03:21:41.686Z,8.00
2023-02-25T03:22:44.319Z,7.00
2023-02-25T03:23:47.528Z,8.50
2023-02-25T03:24:50.934Z,7.25
2023-02-25T03:25:54.170Z,7.00
2023-02-25T03:26:55.847Z,7.00
2023-02-25T03:28:00.615Z,7.00
2023-02-25T03:29:02.261Z,8.50
2023-02-25T03:30:06.500Z,10.00
2023-02-25T03:31:10.344Z,8.00
2023-02-25T03:32:13.133Z,6.00
2023-02-25T03:33:18.961Z,7.00
2023-02-25T03:34:25.112Z,6.50
2023-02-25T03:35:27.092Z,7.25
2023-02-25T03:36:31.448Z,7.00
2023-02-25T03:37:33.098Z,8.75
2023-02-25T03:38:35.705Z,8.75
2023-02-25T03:39:38.546Z,7.25
2023-02-25T03:40:41.300Z,8.75
2023-02-25T03:41:44.685Z,9.00
2023-02-25T03:42:49.036Z,10.00
2023-02-25T03:43:53.653Z,8.50
2023-02-25T03:44:57.719Z,10.00
2023-02-25T03:45:59.473Z,10.00
2023-02-25T03:47:02.264Z,9.25
2023-02-25T03:48:05.764Z,8.00
2023-02-25T03:49:08.429Z,7.50
2023-02-25T03:50:12.667Z,10.00
2023-02-25T03:51:16.395Z,9.25
2023-02-25T03:52:19.813Z,9.00
2023-02-25T03:53:22.436Z,8.00
2023-02-25T03:54:24.062Z,8.50
2023-02-25T03:55:26.676Z,7.50
2023-02-25T03:56:29.349Z,9.50
2023-02-25T03:57:35.509Z,10.00
2023-02-25T03:58:38.851Z,10.00
2023-02-25T03:59:40.495Z,8.75
2023-02-25T04:00:43.311Z,8.75
2023-02-25T04:01:46.840Z,5.50
2023-02-25T04:02:49.680Z,10.00
2023-02-25T04:03:51.372Z,8.50
2023-02-25T04:04:54.030Z,10.00
2023-02-25T04:05:57.025Z,10.00
2023-02-25T04:06:59.626Z,9.50
2023-02-25T04:08:01.282Z,12.50
2023-02-25T04:09:05.010Z,10.00
2023-02-25T04:10:07.726Z,9.25
2023-02-25T04:11:10.348Z,9.50
2023-02-25T04:12:12.203Z,10.00
2023-02-25T04:13:15.629Z,9.75
2023-02-25T04:14:18.319Z,9.75
2023-02-25T04:15:21.115Z,10.25
2023-02-25T04:16:23.160Z,9.25
2023-02-25T04:17:25.969Z,10.00
2023-02-25T04:18:27.754Z,12.00
2023-02-25T04:19:30.361Z,9.75
2023-02-25T04:20:32.638Z,11.50
2023-02-25T04:21:37.189Z,14.50
2023-02-25T04:22:38.823Z,11.50
2023-02-25T04:23:41.461Z,9.75
2023-02-25T04:24:43.105Z,12.00
2023-02-25T04:25:45.718Z,12.00
2023-02-25T04:26:47.343Z,10.50
2023-02-25T04:27:49.948Z,9.75
2023-02-25T04:28:51.648Z,11.50
2023-02-25T04:29:54.307Z,10.00
2023-02-25T04:30:56.122Z,12.00
2023-02-25T04:31:58.957Z,11.00
2023-02-25T04:33:00.633Z,10.75
2023-02-25T04:34:03.304Z,10.00
2023-02-25T04:35:06.513Z,11.75
2023-02-25T04:36:23.527Z,7.50
2023-02-25T04:37:27.923Z,11.00
2023-02-25T04:38:30.553Z,10.75
2023-02-25T04:39:32.277Z,11.00
2023-02-25T04:40:34.879Z,10.75
2023-02-25T04:41:36.528Z,10.75
2023-02-25T04:42:39.149Z,11.00
2023-02-25T04:43:40.808Z,10.75
2023-02-25T04:44:43.415Z,9.25
2023-02-25T04:45:46.722Z,10.00
2023-02-25T04:46:51.659Z,13.00
2023-02-25T04:47:54.439Z,11.00
2023-02-25T04:48:56.127Z,10.75
2023-02-25T04:49:58.739Z,10.00
2023-02-25T04:51:01.052Z,10.75
2023-02-25T04:52:03.728Z,10.75
2023-02-25T04:53:06.714Z,9.00
2023-02-25T04:54:09.337Z,12.00
2023-02-25T04:55:11.113Z,10.75
2023-02-25T04:56:13.707Z,10.75
2023-02-25T04:57:15.927Z,10.75
2023-02-25T04:58:18.526Z,10.25
2023-02-25T04:59:20.329Z,11.25
2023-02-25T05:00:24.137Z,10.00
2023-02-25T05:01:25.897Z,9.25
2023-02-25T05:02:28.565Z,10.00
2023-02-25T05:03:30.247Z,9.00
2023-02-25T05:04:32.915Z,9.00
2023-02-25T05:05:34.646Z,9.00
2023-02-25T05:06:37.310Z,9.25
2023-02-25T05:07:39.025Z,11.25
2023-02-25T05:08:43.012Z,8.50
2023-02-25T05:09:44.795Z,10.50
2023-02-25T05:10:47.416Z,10.00
2023-02-25T05:11:49.097Z,9.00
2023-02-25T05:12:51.705Z,13.00
2023-02-25T05:13:55.533Z,10.75
2023-02-25T05:14:58.229Z,10.00
2023-02-25T05:16:06.733Z,9.00
2023-02-25T05:17:09.412Z,11.25
2023-02-25T05:18:11.096Z,11.50
2023-02-25T05:19:16.473Z,12.00
2023-02-25T05:20:18.461Z,11.25
2023-02-25T05:21:23.252Z,10.00
2023-02-25T05:22:25.049Z,10.00
2023-02-25T05:23:27.767Z,10.50
2023-02-25T05:24:30.769Z,10.00
2023-02-25T05:25:33.880Z,9.25
2023-02-25T05:26:35.544Z,9.25
2023-02-25T05:27:38.150Z,9.25
2023-02-25T05:28:40.017Z,9.50
2023-02-25T05:29:42.754Z,9.50
2023-02-25T05:30:44.445Z,9.25
2023-02-25T05:31:47.683Z,9.50
2023-02-25T05:32:49.568Z,9.00
2023-02-25T05:33:52.366Z,9.50
2023-02-25T05:34:54.028Z,12.00
2023-02-25T05:35:56.624Z,10.00
2023-02-25T05:36:58.281Z,10.75
2023-02-25T05:38:00.897Z,9.75
2023-02-25T05:39:03.489Z,12.00
2023-02-25T05:40:09.148Z,11.75
2023-02-25T05:41:10.946Z,10.75
2023-02-25T05:42:13.554Z,9.25
2023-02-25T05:43:15.180Z,12.00
2023-02-25T05:44:17.802Z,10.00
2023-02-25T05:45:19.460Z,9.25
2023-02-25T05:46:22.527Z,10.00
2023-02-25T05:47:24.378Z,10.75
2023-02-25T05:48:26.993Z,8.50
2023-02-25T05:49:28.628Z,10.25
2023-02-25T05:50:31.731Z,10.50
2023-02-25T05:51:33.371Z,10.25
2023-02-25T05:52:35.969Z,11.50
2023-02-25T05:53:37.681Z,8.50
2023-02-25T05:54:40.346Z,9.75
2023-02-25T05:55:43.410Z,9.00
2023-02-25T05:56:46.021Z,9.00
2023-02-25T05:57:47.646Z,11.75
2023-02-25T05:58:50.285Z,7.75
2023-02-25T05:59:51.934Z,13.25
2023-02-25T06:00:54.532Z,9.00
2023-02-25T06:01:56.256Z,11.25
2023-02-25T06:02:58.939Z,8.75
2023-02-25T06:04:01.182Z,10.00
2023-02-25T06:05:03.997Z,11.75
2023-02-25T06:06:06.425Z,9.25
2023-02-25T06:07:09.032Z,12.00
2023-02-25T06:08:10.705Z,10.00
2023-02-25T06:09:13.345Z,10.00
2023-02-25T06:10:14.977Z,10.00
2023-02-25T06:11:23.221Z,10.25
2023-02-25T06:12:24.931Z,9.00
2023-02-25T06:13:27.625Z,9.00
2023-02-25T06:14:29.298Z,9.25
2023-02-25T06:15:31.921Z,9.00
2023-02-25T06:16:34.580Z,10.50
2023-02-25T06:17:36.259Z,9.00
2023-02-25T06:18:39.743Z,9.50
2023-02-25T06:19:41.416Z,9.00
2023-02-25T06:20:44.036Z,11.00
2023-02-25T06:21:45.661Z,12.00
2023-02-25T06:22:48.288Z,10.75
2023-02-25T06:23:50.275Z,12.00
2023-02-25T06:24:53.090Z,12.25
2023-02-25T06:25:54.801Z,10.50
2023-02-25T06:26:58.766Z,10.00
2023-02-25T06:28:00.816Z,9.75
2023-02-25T06:29:03.419Z,9.50
2023-02-25T06:30:05.882Z,12.00
2023-02-25T06:31:09.895Z,10.00
2023-02-25T06:32:11.878Z,9.25
2023-02-25T06:33:14.687Z,10.00
2023-02-25T06:34:16.324Z,8.75
2023-02-25T06:35:23.184Z,9.25
2023-02-25T06:36:25.091Z,9.75
2023-02-25T06:37:27.946Z,10.25
2023-02-25T06:38:29.849Z,7.00
2023-02-25T06:39:32.474Z,9.00
2023-02-25T06:40:34.155Z,10.00
2023-02-25T06:41:36.778Z,7.00
2023-02-25T06:42:39.830Z,10.00
2023-02-25T06:43:42.507Z,9.25
2023-02-25T06:44:44.150Z,10.00
2023-02-25T06:45:46.856Z,11.00
2023-02-25T06:46:50.068Z,11.25
2023-02-25T06:47:52.682Z,8.50
2023-02-25T06:48:54.415Z,10.75
2023-02-25T06:49:57.601Z,9.00
2023-02-25T06:50:59.298Z,9.00
2023-02-25T06:52:02.173Z,8.75
2023-02-25T06:53:03.807Z,7.00
2023-02-25T06:54:06.532Z,9.00
2023-02-25T06:55:09.439Z,10.00
2023-02-25T06:56:12.617Z,8.75
2023-02-25T06:57:14.267Z,9.50
2023-02-25T06:58:18.732Z,7.50
2023-02-25T06:59:20.432Z,7.50
2023-02-25T07:00:23.698Z,8.00
2023-02-25T07:01:25.580Z,8.75
2023-02-25T07:02:28.199Z,7.00
2023-02-25T07:03:29.835Z,8.75
2023-02-25T07:04:32.582Z,11.25
2023-02-25T07:05:34.301Z,7.25
2023-02-25T07:06:36.937Z,10.00
2023-02-25T07:07:38.615Z,10.00
2023-02-25T07:08:41.236Z,7.00
2023-02-25T07:09:43.873Z,9.00
2023-02-25T07:10:45.561Z,9.00
2023-02-25T07:11:48.395Z,10.00
2023-02-25T07:12:50.052Z,11.75
2023-02-25T07:13:54.013Z,10.75
2023-02-25T07:14:55.639Z,10.00
2023-02-25T07:15:58.306Z,8.50
2023-02-25T07:17:00.943Z,13.25
2023-02-25T07:18:02.646Z,10.00
2023-02-25T07:19:05.260Z,12.00
2023-02-25T07:20:08.154Z,11.50
2023-02-25T07:21:12.172Z,9.00
2023-02-25T07:22:15.500Z,12.75
2023-02-25T07:23:17.151Z,12.00
2023-02-25T07:24:19.792Z,10.25
2023-02-25T07:25:21.556Z,9.50
2023-02-25T07:26:26.209Z,11.75
2023-02-25T07:27:28.844Z,12.75
2023-02-25T07:28:30.512Z,12.25
2023-02-25T07:29:34.479Z,12.50
2023-02-25T07:30:36.099Z,11.75
2023-02-25T07:31:38.879Z,15.50
2023-02-25T07:32:40.816Z,12.00
2023-02-25T07:33:43.702Z,13.25
2023-02-25T07:34:45.406Z,14.00
2023-02-25T07:35:48.052Z,12.25
2023-02-25T07:36:49.782Z,12.00
2023-02-25T07:37:52.607Z,12.00
2023-02-25T07:38:54.351Z,14.00
2023-02-25T07:39:59.636Z,13.75
2023-02-25T07:41:04.482Z,14.00
2023-02-25T07:42:07.100Z,13.25
2023-02-25T07:43:08.732Z,12.00
2023-02-25T07:44:11.333Z,12.25
2023-02-25T07:45:14.304Z,14.00
2023-02-25T07:46:17.026Z,12.00
2023-02-25T07:47:19.318Z,11.50
2023-02-25T07:48:21.961Z,13.00
2023-02-25T07:49:23.636Z,11.75
2023-02-25T07:50:26.545Z,12.00
2023-02-25T07:51:28.506Z,12.00
2023-02-25T07:52:31.132Z,11.75
2023-02-25T07:53:33.569Z,11.75
2023-02-25T07:54:36.223Z,12.00
2023-02-25T07:55:37.854Z,10.00
2023-02-25T07:56:40.458Z,12.00
2023-02-25T07:57:42.107Z,11.50
2023-02-25T07:58:44.786Z,9.50
2023-02-25T07:59:46.483Z,11.50
2023-02-25T08:00:50.459Z,13.25
2023-02-25T08:01:52.091Z,14.50
2023-02-25T08:02:54.933Z,14.00
2023-02-25T08:03:59.042Z,14.00
2023-02-25T08:05:01.064Z,10.75
2023-02-25T08:06:07.855Z,13.00
2023-02-25T08:07:09.492Z,15.75
2023-02-25T08:08:13.089Z,10.75
2023-02-25T08:09:15.993Z,13.75
2023-02-25T08:10:18.142Z,12.00
2023-02-25T08:11:21.013Z,9.50
2023-02-25T08:12:23.073Z,11.50
2023-02-25T08:13:25.730Z,11.75
2023-02-25T08:14:27.405Z,12.00
2023-02-25T08:15:30.029Z,10.75
2023-02-25T08:16:33.109Z,10.50
2023-02-25T08:17:35.821Z,10.75
2023-02-25T08:18:37.608Z,13.00
2023-02-25T08:19:40.584Z,11.75
2023-02-25T08:20:45.946Z,12.25
2023-02-25T08:21:48.595Z,11.25
2023-02-25T08:22:50.248Z,13.00
2023-02-25T08:23:52.999Z,12.25
2023-02-25T08:24:54.648Z,12.25
2023-02-25T08:25:57.657Z,10.50
2023-02-25T08:26:59.315Z,13.75
2023-02-25T08:28:01.947Z,13.00
2023-02-25T08:29:03.589Z,11.25
2023-02-25T08:30:08.629Z,12.00
2023-02-25T08:31:12.012Z,12.75
2023-02-25T08:32:16.996Z,11.25
2023-02-25T08:33:18.902Z,10.75
2023-02-25T08:34:21.539Z,11.25
2023-02-25T08:35:23.607Z,9.50
2023-02-25T08:36:27.721Z,11.25
2023-02-25T08:37:29.446Z,11.50
2023-02-25T08:38:32.056Z,11.75
2023-02-25T08:39:35.895Z,10.75
2023-02-25T08:40:39.464Z,12.25
2023-02-25T08:41:42.907Z,12.00
2023-02-25T08:42:44.553Z,11.50
2023-02-25T08:43:49.467Z,11.00
2023-02-25T08:44:51.139Z,13.25
2023-02-25T08:45:53.761Z,11.75
2023-02-25T08:46:55.455Z,12.75
2023-02-25T08:52:37.148Z,9.25
2023-02-25T08:53:39.470Z,14.25
2023-02-25T08:54:42.223Z,11.00
2023-02-25T08:55:44.699Z,14.00
2023-02-25T08:56:47.320Z,13.25
2023-02-25T08:57:48.830Z,12.75
2023-02-25T08:58:51.327Z,12.00
2023-02-25T08:59:52.933Z,12.25
2023-02-25T09:00:55.972Z,10.75
2023-02-25T09:01:58.714Z,12.75
2023-02-25T09:03:00.250Z,11.25
2023-02-25T09:04:02.714Z,9.75
2023-02-25T09:05:05.764Z,12.75
2023-02-25T09:06:07.548Z,14.00
2023-02-25T09:07:10.034Z,12.00
2023-02-25T09:08:12.886Z,11.50
2023-02-25T09:09:15.687Z,10.00
2023-02-25T09:10:17.862Z,15.50
2023-02-25T09:11:20.477Z,14.00
2023-02-25T09:12:24.652Z,10.75
2023-02-25T09:13:27.446Z,11.00
2023-02-25T09:14:29.938Z,11.75
2023-02-25T09:15:32.475Z,11.75
2023-02-25T09:16:35.295Z,14.50
2023-02-25T09:17:37.851Z,10.00
2023-02-25T09:18:39.411Z,10.25
2023-02-25T09:19:41.899Z,12.00
2023-02-25T09:20:43.497Z,14.00
2023-02-25T09:21:47.930Z,10.50
2023-02-25T09:22:49.545Z,14.00
2023-02-25T09:23:53.508Z,10.00
2023-02-25T09:24:55.937Z,10.25
2023-02-25T09:25:58.437Z,10.00
2023-02-25T09:27:01.171Z,8.00
2023-02-25T09:28:02.728Z,8.00
2023-02-25T09:29:05.822Z,7.00
2023-02-25T09:30:10.030Z,7.00
2023-02-25T09:31:12.904Z,7.00
2023-02-25T09:32:17.749Z,7.00
2023-02-25T09:33:19.293Z,7.00
2023-02-25T09:34:21.762Z,6.00
2023-02-25T09:35:23.692Z,3.50
2023-02-25T09:36:26.325Z,3.00
2023-02-25T09:37:27.893Z,5.00
2023-02-25T09:38:30.557Z,2.00
2023-02-25T09:39:34.286Z,3.00
2023-02-25T09:40:37.104Z,3.00
2023-02-25T09:41:43.992Z,3.00
2023-02-25T09:42:51.452Z,3.00
2023-02-25T09:43:59.397Z,3.00
2023-02-25T09:45:02.472Z,5.00
2023-02-25T09:46:06.029Z,1.50
2023-02-25T09:47:13.489Z,3.00
2023-02-25T09:48:16.527Z,1.00
2023-02-25T09:49:21.658Z,1.00
2023-02-25T09:50:24.414Z,1.00
2023-02-25T09:51:28.700Z,1.00
2023-02-25T09:52:32.619Z,1.00
2023-02-25T09:53:35.606Z,1.00
2023-02-25T09:54:41.477Z,1.00
2023-02-25T09:55:44.314Z,1.00
2023-02-25T09:56:46.923Z,1.00
2023-02-25T09:57:59.442Z,4.00
2023-02-25T09:59:02.236Z,1.50
2023-02-25T10:00:09.172Z,1.00
2023-02-25T10:01:15.976Z,1.00
2023-02-25T10:02:22.396Z,1.00
2023-02-25T10:03:26.731Z,1.00
2023-02-25T10:04:33.131Z,0.00
2023-02-25T10:05:39.171Z,1.00
2023-02-25T10:06:44.280Z,2.50
2023-02-25T10:07:53.737Z,2.50
2023-02-25T10:08:58.986Z,1.00
2023-02-25T10:10:06.602Z,1.00
2023-02-25T10:11:10.062Z,0.75
2023-02-25T10:12:19.397Z,18.75
2023-02-25T10:13:26.980Z,12.00
2023-02-25T10:14:57.399Z,8.00
2023-02-25T10:16:02.595Z,3.00
2023-02-25T10:17:08.887Z,1.50
2023-02-25T10:18:15.408Z,3.00
2023-02-25T10:19:25.000Z,1.00
2023-02-25T10:20:39.333Z,1.00
2023-02-25T10:21:55.573Z,2.00
2023-02-25T10:23:00.465Z,0.25
2023-02-25T10:24:13.456Z,1.00
2023-02-25T10:25:19.212Z,1.00
2023-02-25T10:26:23.407Z,1.00
2023-02-25T10:27:27.647Z,1.00
2023-02-25T10:28:30.558Z,1.00
2023-02-25T10:29:38.902Z,1.00
2023-02-25T10:30:47.952Z,2.00
2023-02-25T10:31:50.002Z,1.00
2023-02-25T10:32:53.184Z,0.25
2023-02-25T10:33:54.993Z,1.00
2023-02-25T10:34:59.292Z,1.00
2023-02-25T10:36:03.840Z,1.00
2023-02-25T10:37:06.408Z,0.50
2023-02-25T10:38:09.220Z,1.00
2023-02-25T10:39:12.024Z,1.00
2023-02-25T10:40:17.834Z,1.00
2023-02-25T10:41:22.609Z,1.00
2023-02-25T10:42:26.047Z,1.00
2023-02-25T10:43:28.603Z,0.00
2023-02-25T10:44:31.217Z,3.00
2023-02-25T10:45:33.746Z,1.00
2023-02-25T10:46:37.075Z,0.00
2023-02-25T10:47:40.978Z,2.00
2023-02-25T10:48:43.277Z,0.75
2023-02-25T10:50:16.800Z,1.00
2023-02-25T10:51:18.339Z,0.25
2023-02-25T10:52:21.596Z,0.25
2023-02-25T10:53:24.206Z,1.00
2023-02-25T10:54:26.952Z,1.00
2023-02-25T10:55:41.245Z,1.00
2023-02-25T10:56:44.757Z,1.00
2023-02-25T10:57:46.274Z,0.50
2023-02-25T10:59:01.197Z,1.00
2023-02-25T11:00:05.020Z,1.00
2023-02-25T11:01:10.942Z,0.25
2023-02-25T11:02:23.174Z,0.75
2023-02-25T11:03:24.972Z,0.50
2023-02-25T11:04:30.634Z,0.75
2023-02-25T11:05:36.025Z,1.00
2023-02-25T11:06:38.903Z,1.00
2023-02-25T11:07:41.363Z,0.00
2023-02-25T11:08:44.487Z,0.00
2023-02-25T11:09:47.059Z,1.00
2023-02-25T11:10:58.465Z,0.00
2023-02-25T11:12:01.921Z,0.25
2023-02-25T11:13:05.843Z,0.00
2023-02-25T11:14:14.507Z,0.00
2023-02-25T11:15:43.073Z,3.00
2023-02-25T11:16:47.308Z,1.00
2023-02-25T11:17:48.902Z,0.00
2023-02-25T11:18:56.219Z,1.00
2023-02-25T11:20:00.716Z,0.00
2023-02-25T11:21:03.000Z,0.00
2023-02-25T11:22:09.252Z,1.00
2023-02-25T11:23:13.923Z,1.00
2023-02-25T11:24:17.283Z,0.00
2023-02-25T11:25:20.389Z,1.00
2023-02-25T11:26:30.112Z,0.50
2023-02-25T11:27:37.169Z,1.00
2023-02-25T11:28:41.126Z,0.00
2023-02-25T11:29:43.988Z,1.00
2023-02-25T11:30:45.695Z,0.75
2023-02-25T11:31:49.938Z,0.00
2023-02-25T11:32:54.425Z,0.00
2023-02-25T11:33:57.333Z,0.50
2023-02-25T11:35:04.860Z,1.00
2023-02-25T11:36:07.780Z,1.00
2023-02-25T11:37:35.616Z,1.00
2023-02-25T11:38:38.401Z,0.25
2023-02-25T11:39:40.958Z,1.00
2023-02-25T11:40:44.065Z,0.00
2023-02-25T11:41:49.449Z,0.50
2023-02-25T11:43:17.299Z,0.50
2023-02-25T11:44:27.904Z,0.00
2023-02-25T11:45:29.819Z,0.00
2023-02-25T11:46:33.928Z,1.00
2023-02-25T11:47:37.368Z,1.00
2023-02-25T11:48:46.127Z,1.00
2023-02-25T11:50:05.009Z,0.25
2023-02-25T11:51:14.058Z,1.00
2023-02-25T11:52:19.583Z,0.50
2023-02-25T11:53:29.020Z,1.00
2023-02-25T11:54:36.207Z,0.00
2023-02-25T11:55:45.841Z,0.75
2023-02-25T11:56:51.532Z,0.75
2023-02-25T11:58:02.546Z,0.00
2023-02-25T11:59:15.913Z,0.75
2023-02-25T12:00:25.408Z,1.00
2023-02-25T12:01:35.432Z,1.00
2023-02-25T12:02:42.713Z,0.00
2023-02-25T12:04:07.180Z,2.00
2023-02-25T12:05:24.164Z,0.00
2023-02-25T12:06:32.812Z,1.00
2023-02-25T12:08:12.477Z,1.00
2023-02-25T12:09:45.265Z,1.00
2023-02-25T12:11:01.067Z,0.75
2023-02-25T12:12:52.535Z,1.00
2023-02-25T12:14:10.579Z,0.00
2023-02-25T12:15:31.324Z,0.75
2023-02-25T12:17:07.156Z,0.00
2023-02-25T12:18:54.213Z,0.00
2023-02-25T12:20:47.654Z,0.00
2023-02-25T12:22:14.594Z,0.00
2023-02-25T12:23:43.067Z,0.00
2023-02-25T12:25:01.027Z,1.00
2023-02-25T12:26:06.523Z,1.00
2023-02-25T12:27:43.510Z,1.00
2023-02-25T12:28:58.456Z,1.00
2023-02-25T12:30:20.736Z,0.25
2023-02-25T12:31:40.928Z,0.50
2023-02-25T12:32:53.709Z,1.00
2023-02-25T12:34:06.067Z,1.00
2023-02-25T12:35:23.301Z,1.00
2023-02-25T12:36:42.062Z,0.25
2023-02-25T12:38:04.468Z,3.00
2023-02-25T12:39:18.409Z,1.00
2023-02-25T12:40:30.364Z,0.50
2023-02-25T12:41:40.046Z,0.00
2023-02-25T12:42:51.836Z,0.75
2023-02-25T12:43:56.550Z,3.00
2023-02-25T12:45:03.675Z,1.00
2023-02-25T12:46:35.939Z,1.00
2023-02-25T12:47:46.262Z,1.00
2023-02-25T12:49:19.914Z,0.00
2023-02-25T12:50:29.237Z,1.00
2023-02-25T12:51:40.635Z,0.50
2023-02-25T12:52:49.553Z,0.00
2023-02-25T12:53:54.798Z,1.00
2023-02-25T12:55:10.779Z,1.00
2023-02-25T12:56:20.732Z,0.75
2023-02-25T12:57:31.615Z,0.50
2023-02-25T12:58:43.494Z,1.00
2023-02-25T12:59:56.800Z,3.00
2023-02-25T13:01:31.292Z,0.50
2023-02-25T13:02:44.276Z,1.00
2023-02-25T13:04:03.993Z,1.00
2023-02-25T13:05:26.948Z,1.00
2023-02-25T13:06:38.237Z,1.00
2023-02-25T13:07:48.681Z,1.00
2023-02-25T13:09:01.356Z,1.00
2023-02-25T13:10:11.968Z,1.00
2023-02-25T13:11:20.766Z,1.00
2023-02-25T13:12:32.459Z,0.00
2023-02-25T13:13:53.938Z,1.00
2023-02-25T13:15:04.000Z,0.25
2023-02-25T13:16:18.057Z,2.50
2023-02-25T13:17:34.350Z,1.00
2023-02-25T13:18:40.448Z,1.00
2023-02-25T13:19:54.383Z,1.00
2023-02-25T13:21:14.474Z,1.00
2023-02-25T13:22:20.983Z,6.00
2023-02-25T13:23:32.412Z,1.00
2023-02-25T13:24:41.164Z,1.00
2023-02-25T13:25:51.469Z,1.00
2023-02-25T13:26:59.728Z,1.00
2023-02-25T13:28:15.250Z,0.25
2023-02-25T13:29:28.307Z,1.00
2023-02-25T13:30:35.352Z,1.00
2023-02-25T13:31:42.951Z,1.00
2023-02-25T13:32:48.420Z,1.00
2023-02-25T13:33:58.338Z,1.00
2023-02-25T13:35:10.798Z,1.00
2023-02-25T13:36:25.163Z,0.00
2023-02-25T13:37:37.788Z,1.50
2023-02-25T13:38:51.447Z,0.00
2023-02-25T13:40:05.182Z,0.25
2023-02-25T13:41:15.444Z,2.00
2023-02-25T13:42:31.384Z,1.00
2023-02-25T13:43:52.479Z,1.00
2023-02-25T13:45:23.392Z,1.00
2023-02-25T13:46:35.834Z,1.00
2023-02-25T13:47:49.462Z,1.00
2023-02-25T13:49:18.592Z,1.00
2023-02-25T13:50:34.299Z,1.00
2023-02-25T13:52:01.842Z,1.00
2023-02-25T13:53:27.712Z,1.00
2023-02-25T13:54:58.653Z,0.00
2023-02-25T13:56:16.742Z,0.75
2023-02-25T13:57:26.358Z,1.00
2023-02-25T13:58:45.713Z,1.00
2023-02-25T13:59:56.731Z,0.25
2023-02-25T14:01:26.707Z,0.75
2023-02-25T14:02:42.669Z,1.50
2023-02-25T14:04:26.684Z,1.00
2023-02-25T14:05:41.763Z,1.00
2023-02-25T14:06:49.309Z,1.00
2023-02-25T14:08:12.631Z,1.00
2023-02-25T14:09:35.126Z,1.00
2023-02-25T14:10:45.839Z,0.00
2023-02-25T14:12:03.110Z,1.00
2023-02-25T14:13:34.335Z,0.00
2023-02-25T14:15:03.979Z,0.00
2023-02-25T14:16:09.800Z,0.75
2023-02-25T14:17:32.734Z,1.00
2023-02-25T14:18:53.691Z,0.25
2023-02-25T14:20:03.810Z,1.00
2023-02-25T14:21:17.734Z,1.00
2023-02-25T14:22:36.112Z,0.00
2023-02-25T14:23:44.334Z,1.00
2023-02-25T14:24:48.411Z,0.00
2023-02-25T14:26:06.440Z,1.00
2023-02-25T14:27:20.606Z,0.00
2023-02-25T14:28:28.329Z,1.00
2023-02-25T14:29:35.284Z,1.00
2023-02-25T14:30:41.412Z,1.00
2023-02-25T14:31:54.715Z,3.25
2023-02-25T14:33:10.230Z,1.00